Disclaimer

Please do not use the information listed here in-flight or in-navigation, as they are not provided to us by the airports but are provided by volunteers, so they might be outdated.

Search


Regions


Airport information page

Radio informations:
Tower (TWR) - 118.9 MHz
Ground (GND) - 121.9 MHz
Automatic Terminal Information Service (ATIS) - 263.0 MHz
Approach (APP) - 120.7 MHz

Airport informations:
Latitude: 16° 46' 58.58" N
Longitude: 100° 16' 44.84" E
Elevation: 154 feet - 47 meters
Operating hours: Remarks
Operating agency: Civil government, landing fees and diplomatic clearance may be required
Timezone: UTC+7
Fuel: N/A

Runway information:
14/32 - 9843 x 148 feet< - >3000 x 45 meters

Recent METARs:
VTPP 170900Z 34005KT 300V040 9999 FEW025 32/18 Q1011 NOSIG
VTPP 171000Z 33004KT 9999 FEW050 31/18 Q1011 NOSIG
VTPP 171000Z 33004KT 9999 FEW050 31/18 Q1011 NOSIG

Airport on the map: